sensor_id;sensor_type;location;lat;lon;timestamp;pressure;altitude;pressure_sealevel;temperature;humidity
78623;BME280;67943;54.412;9.502;2023-09-12T00:04:11;101067.78;;;21.27;87.62
78623;BME280;67943;54.412;9.502;2023-09-12T00:09:12;101091.97;;;21.26;87.84
78623;BME280;67943;54.412;9.502;2023-09-12T00:14:16;101095.31;;;21.29;87.60
78623;BME280;67943;54.412;9.502;2023-09-12T00:19:18;101091.97;;;21.26;87.77
78623;BME280;67943;54.412;9.502;2023-09-12T00:24:19;101093.16;;;21.20;88.27
78623;BME280;67943;54.412;9.502;2023-09-12T00:29:22;101093.78;;;21.09;89.33
78623;BME280;67943;54.412;9.502;2023-09-12T00:34:24;101095.63;;;21.09;89.76
78623;BME280;67943;54.412;9.502;2023-09-12T00:39:25;101085.50;;;21.14;90.21
78623;BME280;67943;54.412;9.502;2023-09-12T00:44:28;101082.63;;;21.17;90.83
78623;BME280;67943;54.412;9.502;2023-09-12T00:49:30;101080.41;;;21.25;90.22
78623;BME280;67943;54.412;9.502;2023-09-12T00:54:32;101083.97;;;21.10;91.36
78623;BME280;67943;54.412;9.502;2023-09-12T00:59:35;101068.00;;;21.08;90.99
78623;BME280;67943;54.412;9.502;2023-09-12T01:04:37;101073.75;;;21.02;91.18
78623;BME280;67943;54.412;9.502;2023-09-12T01:09:39;101058.34;;;20.92;91.97
78623;BME280;67943;54.412;9.502;2023-09-12T01:14:42;101045.63;;;20.95;92.48
78623;BME280;67943;54.412;9.502;2023-09-12T01:19:44;101053.38;;;21.00;91.04
78623;BME280;67943;54.412;9.502;2023-09-12T01:25:05;101043.63;;;20.99;91.75
78623;BME280;67943;54.412;9.502;2023-09-12T01:30:10;101058.66;;;21.01;90.90
78623;BME280;67943;54.412;9.502;2023-09-12T01:35:12;101044.97;;;20.92;90.85
78623;BME280;67943;54.412;9.502;2023-09-12T01:40:13;101047.03;;;20.86;91.93
78623;BME280;67943;54.412;9.502;2023-09-12T01:45:18;101036.16;;;20.89;91.88
78623;BME280;67943;54.412;9.502;2023-09-12T01:50:22;101034.84;;;20.97;91.43
78623;BME280;67943;54.412;9.502;2023-09-12T01:55:27;101029.88;;;21.05;90.57
78623;BME280;67943;54.412;9.502;2023-09-12T02:00:30;101020.25;;;21.02;89.21
78623;BME280;67943;54.412;9.502;2023-09-12T02:05:32;101016.13;;;20.97;89.64
78623;BME280;67943;54.412;9.502;2023-09-12T02:10:33;101023.38;;;20.95;89.06
78623;BME280;67943;54.412;9.502;2023-09-12T02:15:36;101016.66;;;20.87;89.50
78623;BME280;67943;54.412;9.502;2023-09-12T02:20:39;101018.75;;;20.82;90.21
78623;BME280;67943;54.412;9.502;2023-09-12T02:25:41;101015.81;;;20.87;89.09
78623;BME280;67943;54.412;9.502;2023-09-12T02:30:44;101019.53;;;20.70;89.88
78623;BME280;67943;54.412;9.502;2023-09-12T02:35:46;101029.22;;;20.57;90.78
78623;BME280;67943;54.412;9.502;2023-09-12T02:40:47;101025.09;;;20.51;91.70
78623;BME280;67943;54.412;9.502;2023-09-12T02:45:50;101051.63;;;20.54;91.27
78623;BME280;67943;54.412;9.502;2023-09-12T02:50:51;101039.97;;;20.41;92.15
78623;BME280;67943;54.412;9.502;2023-09-12T02:55:53;101047.44;;;20.35;93.01
78623;BME280;67943;54.412;9.502;2023-09-12T03:00:56;101052.34;;;20.27;93.55
78623;BME280;67943;54.412;9.502;2023-09-12T03:05:58;101047.78;;;20.29;93.76
78623;BME280;67943;54.412;9.502;2023-09-12T03:11:00;101041.94;;;20.38;93.02
78623;BME280;67943;54.412;9.502;2023-09-12T03:16:04;101033.75;;;20.41;93.34
78623;BME280;67943;54.412;9.502;2023-09-12T03:21:06;101027.66;;;20.53;90.63
78623;BME280;67943;54.412;9.502;2023-09-12T03:26:08;101035.31;;;20.45;91.90
78623;BME280;67943;54.412;9.502;2023-09-12T03:31:11;101057.47;;;20.47;91.15
78623;BME280;67943;54.412;9.502;2023-09-12T03:36:13;101056.09;;;20.40;90.42
78623;BME280;67943;54.412;9.502;2023-09-12T03:41:15;101052.69;;;20.36;90.26
78623;BME280;67943;54.412;9.502;2023-09-12T03:46:19;101043.75;;;20.21;91.01
78623;BME280;67943;54.412;9.502;2023-09-12T03:51:20;101067.03;;;20.19;91.26
78623;BME280;67943;54.412;9.502;2023-09-12T03:56:21;101065.50;;;20.15;91.77
78623;BME280;67943;54.412;9.502;2023-09-12T04:01:24;101069.88;;;20.16;91.81
78623;BME280;67943;54.412;9.502;2023-09-12T04:06:26;101069.13;;;20.14;92.09
78623;BME280;67943;54.412;9.502;2023-09-12T04:11:27;101058.34;;;20.16;92.29
78623;BME280;67943;54.412;9.502;2023-09-12T04:16:30;101064.47;;;20.18;91.96
78623;BME280;67943;54.412;9.502;2023-09-12T04:21:32;101063.00;;;20.12;92.44
78623;BME280;67943;54.412;9.502;2023-09-12T04:26:34;101062.72;;;20.17;91.78
78623;BME280;67943;54.412;9.502;2023-09-12T04:31:37;101072.03;;;20.10;92.26
78623;BME280;67943;54.412;9.502;2023-09-12T04:36:39;101065.84;;;20.09;92.32
78623;BME280;67943;54.412;9.502;2023-09-12T04:41:40;101071.69;;;20.00;93.53
78623;BME280;67943;54.412;9.502;2023-09-12T04:46:43;101053.44;;;20.08;93.15
78623;BME280;67943;54.412;9.502;2023-09-12T04:51:44;101051.88;;;20.04;93.48
78623;BME280;67943;54.412;9.502;2023-09-12T04:56:46;101053.78;;;20.02;92.75
78623;BME280;67943;54.412;9.502;2023-09-12T05:01:49;101047.47;;;20.03;92.84
78623;BME280;67943;54.412;9.502;2023-09-12T05:06:51;101052.03;;;20.01;92.80
78623;BME280;67943;54.412;9.502;2023-09-12T05:11:53;101052.91;;;20.02;93.48
78623;BME280;67943;54.412;9.502;2023-09-12T05:16:56;101052.91;;;20.02;93.68
78623;BME280;67943;54.412;9.502;2023-09-12T05:21:58;101047.72;;;19.99;94.01
78623;BME280;67943;54.412;9.502;2023-09-12T05:26:59;101032.56;;;19.99;94.15
78623;BME280;67943;54.412;9.502;2023-09-12T05:32:02;101036.34;;;19.95;94.60
78623;BME280;67943;54.412;9.502;2023-09-12T05:37:04;101036.56;;;19.92;95.37
78623;BME280;67943;54.412;9.502;2023-09-12T05:42:05;101062.72;;;20.01;94.37
78623;BME280;67943;54.412;9.502;2023-09-12T05:47:08;101068.50;;;19.94;94.91
78623;BME280;67943;54.412;9.502;2023-09-12T05:52:10;101076.50;;;19.94;95.25
78623;BME280;67943;54.412;9.502;2023-09-12T05:57:11;101082.53;;;19.97;94.72
78623;BME280;67943;54.412;9.502;2023-09-12T06:02:14;101080.97;;;19.93;95.95
78623;BME280;67943;54.412;9.502;2023-09-12T06:07:16;101076.50;;;19.94;96.16
78623;BME280;67943;54.412;9.502;2023-09-12T06:12:17;101088.31;;;20.05;95.38
78623;BME280;67943;54.412;9.502;2023-09-12T06:17:20;101090.81;;;20.08;95.44
78623;BME280;67943;54.412;9.502;2023-09-12T06:22:22;101101.69;;;20.05;95.93
78623;BME280;67943;54.412;9.502;2023-09-12T06:27:24;101114.09;;;20.06;96.47
78623;BME280;67943;54.412;9.502;2023-09-12T06:32:27;101103.41;;;20.06;95.65
78623;BME280;67943;54.412;9.502;2023-09-12T06:37:28;101111.84;;;20.14;95.64
78623;BME280;67943;54.412;9.502;2023-09-12T06:42:30;101104.44;;;20.19;95.45
78623;BME280;67943;54.412;9.502;2023-09-12T06:47:33;101110.38;;;20.24;96.03
78623;BME280;67943;54.412;9.502;2023-09-12T06:52:34;101110.03;;;20.31;96.16
78623;BME280;67943;54.412;9.502;2023-09-12T06:57:35;101101.47;;;20.55;94.17
78623;BME280;67943;54.412;9.502;2023-09-12T07:02:39;101097.66;;;20.75;92.29
78623;BME280;67943;54.412;9.502;2023-09-12T07:07:40;101107.19;;;20.79;92.40
78623;BME280;67943;54.412;9.502;2023-09-12T07:12:42;101102.16;;;20.89;91.84
78623;BME280;67943;54.412;9.502;2023-09-12T07:17:44;101098.28;;;21.09;90.69
78623;BME280;67943;54.412;9.502;2023-09-12T07:22:47;101100.78;;;21.12;90.00
78623;BME280;67943;54.412;9.502;2023-09-12T07:27:48;101099.03;;;21.27;88.34
78623;BME280;67943;54.412;9.502;2023-09-12T07:32:51;101097.16;;;21.13;88.83
78623;BME280;67943;54.412;9.502;2023-09-12T07:37:53;101090.75;;;21.15;89.58
78623;BME280;67943;54.412;9.502;2023-09-12T07:42:54;101094.34;;;21.44;87.34
78623;BME280;67943;54.412;9.502;2023-09-12T07:47:57;101094.16;;;21.47;87.30
78623;BME280;67943;54.412;9.502;2023-09-12T07:52:58;101093.38;;;21.74;86.56
78623;BME280;67943;54.412;9.502;2023-09-12T07:58:00;101083.81;;;21.84;84.76
78623;BME280;67943;54.412;9.502;2023-09-12T08:03:03;101090.09;;;21.97;83.10
78623;BME280;67943;54.412;9.502;2023-09-12T08:08:05;101094.13;;;22.04;82.44
78623;BME280;67943;54.412;9.502;2023-09-12T08:13:06;101105.63;;;21.78;83.62
78623;BME280;67943;54.412;9.502;2023-09-12T08:18:09;101097.78;;;21.89;83.48
78623;BME280;67943;54.412;9.502;2023-09-12T08:23:11;101102.16;;;22.04;82.15
78623;BME280;67943;54.412;9.502;2023-09-12T08:28:13;101110.66;;;21.97;80.75
78623;BME280;67943;54.412;9.502;2023-09-12T08:33:15;101110.03;;;21.93;81.15
78623;BME280;67943;54.412;9.502;2023-09-12T08:38:17;101119.34;;;22.29;80.01
78623;BME280;67943;54.412;9.502;2023-09-12T08:43:19;101108.19;;;22.08;80.01
78623;BME280;67943;54.412;9.502;2023-09-12T08:48:22;101137.66;;;22.22;79.66
78623;BME280;67943;54.412;9.502;2023-09-12T08:53:27;101133.50;;;22.31;78.74
78623;BME280;67943;54.412;9.502;2023-09-12T08:58:28;101133.19;;;22.35;77.47
78623;BME280;67943;54.412;9.502;2023-09-12T09:03:34;101143.47;;;22.82;75.38
78623;BME280;67943;54.412;9.502;2023-09-12T09:08:37;101143.53;;;22.95;73.93
78623;BME280;67943;54.412;9.502;2023-09-12T09:13:39;101146.66;;;22.75;73.90
78623;BME280;67943;54.412;9.502;2023-09-12T09:19:00;101154.47;;;22.24;76.22
78623;BME280;67943;54.412;9.502;2023-09-12T09:24:04;101145.91;;;22.19;76.72
78623;BME280;67943;54.412;9.502;2023-09-12T09:29:09;101152.13;;;22.19;76.85
78623;BME280;67943;54.412;9.502;2023-09-12T09:34:13;101154.38;;;22.26;76.80
78623;BME280;67943;54.412;9.502;2023-09-12T09:39:16;101149.88;;;22.26;76.60
78623;BME280;67943;54.412;9.502;2023-09-12T09:44:18;101144.94;;;22.74;74.52
78623;BME280;67943;54.412;9.502;2023-09-12T09:49:23;101141.44;;;23.51;70.47
78623;BME280;67943;54.412;9.502;2023-09-12T09:54:25;101145.50;;;23.44;70.74
78623;BME280;67943;54.412;9.502;2023-09-12T09:59:27;101136.94;;;23.51;70.14
78623;BME280;67943;54.412;9.502;2023-09-12T10:04:31;101147.69;;;23.39;70.25
78623;BME280;67943;54.412;9.502;2023-09-12T10:09:34;101148.47;;;24.15;67.52
78623;BME280;67943;54.412;9.502;2023-09-12T10:14:37;101155.38;;;25.15;62.65
78623;BME280;67943;54.412;9.502;2023-09-12T10:19:43;101170.09;;;26.13;57.59
78623;BME280;67943;54.412;9.502;2023-09-12T10:24:52;101164.16;;;26.96;55.54
78623;BME280;67943;54.412;9.502;2023-09-12T10:29:55;101174.47;;;25.58;59.01
78623;BME280;67943;54.412;9.502;2023-09-12T10:35:02;101171.69;;;25.24;60.94
78623;BME280;67943;54.412;9.502;2023-09-12T10:40:05;101183.81;;;24.71;60.44
78623;BME280;67943;54.412;9.502;2023-09-12T10:45:09;101187.19;;;24.26;60.96
78623;BME280;67943;54.412;9.502;2023-09-12T10:50:13;101182.56;;;25.12;58.97
78623;BME280;67943;54.412;9.502;2023-09-12T10:55:16;101170.44;;;26.53;54.87
78623;BME280;67943;54.412;9.502;2023-09-12T11:00:18;101184.81;;;25.98;56.37
78623;BME280;67943;54.412;9.502;2023-09-12T11:05:37;101180.06;;;25.33;58.84
78623;BME280;67943;54.412;9.502;2023-09-12T11:10:40;101171.34;;;25.29;58.73
78623;BME280;67943;54.412;9.502;2023-09-12T11:16:10;101168.22;;;24.87;59.21
78623;BME280;67943;54.412;9.502;2023-09-12T11:21:13;101170.44;;;25.06;58.98
78623;BME280;67943;54.412;9.502;2023-09-12T11:26:15;101155.97;;;25.53;58.37
78623;BME280;67943;54.412;9.502;2023-09-12T11:31:24;101146.81;;;25.89;57.21
78623;BME280;67943;54.412;9.502;2023-09-12T11:36:28;101142.50;;;26.20;56.15
78623;BME280;67943;54.412;9.502;2023-09-12T11:41:39;101143.34;;;26.32;55.21
78623;BME280;67943;54.412;9.502;2023-09-12T11:46:41;101136.50;;;26.06;56.39
78623;BME280;67943;54.412;9.502;2023-09-12T11:51:49;101142.50;;;26.20;55.44
78623;BME280;67943;54.412;9.502;2023-09-12T11:56:51;101142.63;;;26.30;54.44
78623;BME280;67943;54.412;9.502;2023-09-12T12:01:57;101139.81;;;25.76;56.79
78623;BME280;67943;54.412;9.502;2023-09-12T12:07:02;101138.06;;;25.52;58.11
78623;BME280;67943;54.412;9.502;2023-09-12T12:12:09;101149.56;;;25.32;58.19
78623;BME280;67943;54.412;9.502;2023-09-12T12:17:11;101152.03;;;25.00;58.95
78623;BME280;67943;54.412;9.502;2023-09-12T12:22:15;101154.22;;;24.95;59.11
78623;BME280;67943;54.412;9.502;2023-09-12T12:27:16;101138.72;;;24.86;58.39
78623;BME280;67943;54.412;9.502;2023-09-12T12:32:18;101132.09;;;25.03;58.17
78623;BME280;67943;54.412;9.502;2023-09-12T12:37:28;101135.41;;;26.08;54.53
78623;BME280;67943;54.412;9.502;2023-09-12T12:42:33;101125.94;;;26.68;53.63
78623;BME280;67943;54.412;9.502;2023-09-12T12:47:35;101128.53;;;26.27;55.30
78623;BME280;67943;54.412;9.502;2023-09-12T12:52:38;101118.31;;;27.26;53.41
78623;BME280;67943;54.412;9.502;2023-09-12T12:57:41;101109.13;;;28.49;47.95
78623;BME280;67943;54.412;9.502;2023-09-12T13:02:44;101113.22;;;29.30;46.13
78623;BME280;67943;54.412;9.502;2023-09-12T13:07:47;101096.59;;;29.99;44.01
78623;BME280;67943;54.412;9.502;2023-09-12T13:12:49;101094.59;;;28.88;46.88
78623;BME280;67943;54.412;9.502;2023-09-12T13:17:50;101096.50;;;28.09;49.61
78623;BME280;67943;54.412;9.502;2023-09-12T13:22:53;101096.78;;;27.45;51.78
78623;BME280;67943;54.412;9.502;2023-09-12T13:27:56;101097.28;;;27.30;53.62
78623;BME280;67943;54.412;9.502;2023-09-12T13:32:58;101097.25;;;27.71;52.20
78623;BME280;67943;54.412;9.502;2023-09-12T13:38:01;101095.50;;;27.61;50.83
78623;BME280;67943;54.412;9.502;2023-09-12T13:43:04;101090.25;;;27.48;51.78
78623;BME280;67943;54.412;9.502;2023-09-12T13:48:06;101084.84;;;27.38;51.83
78623;BME280;67943;54.412;9.502;2023-09-12T13:53:09;101091.06;;;26.76;52.94
78623;BME280;67943;54.412;9.502;2023-09-12T13:58:11;101080.06;;;26.89;53.75
78623;BME280;67943;54.412;9.502;2023-09-12T14:03:12;101085.25;;;27.43;52.31
78623;BME280;67943;54.412;9.502;2023-09-12T14:08:15;101092.09;;;27.17;53.10
78623;BME280;67943;54.412;9.502;2023-09-12T14:13:17;101094.38;;;26.48;54.00
78623;BME280;67943;54.412;9.502;2023-09-12T14:18:19;101105.78;;;25.97;56.00
78623;BME280;67943;54.412;9.502;2023-09-12T14:23:21;101113.16;;;25.15;58.72
78623;BME280;67943;54.412;9.502;2023-09-12T14:28:24;101124.91;;;25.14;60.17
78623;BME280;67943;54.412;9.502;2023-09-12T14:33:26;101133.72;;;25.05;60.77
78623;BME280;67943;54.412;9.502;2023-09-12T14:38:28;101124.28;;;24.76;62.05
78623;BME280;67943;54.412;9.502;2023-09-12T14:43:30;101125.66;;;24.81;62.74
78623;BME280;67943;54.412;9.502;2023-09-12T14:48:34;101117.19;;;25.10;61.91
78623;BME280;67943;54.412;9.502;2023-09-12T14:53:37;101122.56;;;24.86;61.21
78623;BME280;67943;54.412;9.502;2023-09-12T14:58:44;101119.50;;;25.03;60.31
78623;BME280;67943;54.412;9.502;2023-09-12T15:03:45;101119.69;;;25.35;59.70
78623;BME280;67943;54.412;9.502;2023-09-12T15:08:49;101116.44;;;25.65;57.47
78623;BME280;67943;54.412;9.502;2023-09-12T15:13:50;101129.19;;;25.63;57.08
78623;BME280;67943;54.412;9.502;2023-09-12T15:18:52;101122.69;;;25.66;56.76
78623;BME280;67943;54.412;9.502;2023-09-12T15:23:55;101125.34;;;25.54;56.63
78623;BME280;67943;54.412;9.502;2023-09-12T15:28:57;101121.81;;;24.73;58.22
78623;BME280;67943;54.412;9.502;2023-09-12T15:34:00;101108.03;;;24.88;58.97
78623;BME280;67943;54.412;9.502;2023-09-12T15:39:03;101113.25;;;25.03;58.02
78623;BME280;67943;54.412;9.502;2023-09-12T15:44:05;101117.31;;;25.19;58.24
78623;BME280;67943;54.412;9.502;2023-09-12T15:49:07;101104.03;;;25.51;57.73
78623;BME280;67943;54.412;9.502;2023-09-12T15:54:10;101102.09;;;25.76;56.17
78623;BME280;67943;54.412;9.502;2023-09-12T15:59:11;101095.88;;;25.64;56.43
78623;BME280;67943;54.412;9.502;2023-09-12T16:04:13;101091.78;;;25.47;56.01
78623;BME280;67943;54.412;9.502;2023-09-12T16:09:16;101099.84;;;25.25;56.68
78623;BME280;67943;54.412;9.502;2023-09-12T16:14:17;101095.78;;;25.08;56.73
78623;BME280;67943;54.412;9.502;2023-09-12T16:19:19;101100.41;;;24.71;57.58
78623;BME280;67943;54.412;9.502;2023-09-12T16:24:22;101102.06;;;24.61;58.56
78623;BME280;67943;54.412;9.502;2023-09-12T16:29:23;101100.56;;;24.57;59.08
78623;BME280;67943;54.412;9.502;2023-09-12T16:34:25;101101.19;;;24.61;59.51
78623;BME280;67943;54.412;9.502;2023-09-12T16:39:27;101103.06;;;24.23;60.77
78623;BME280;67943;54.412;9.502;2023-09-12T16:44:29;101097.66;;;24.00;61.97
78623;BME280;67943;54.412;9.502;2023-09-12T16:49:30;101094.59;;;23.68;63.38
78623;BME280;67943;54.412;9.502;2023-09-12T16:54:35;101107.69;;;23.47;64.61
78623;BME280;67943;54.412;9.502;2023-09-12T16:59:37;101116.94;;;23.30;65.62
78623;BME280;67943;54.412;9.502;2023-09-12T17:04:39;101120.03;;;23.11;66.37
78623;BME280;67943;54.412;9.502;2023-09-12T17:09:44;101115.84;;;22.95;67.71
78623;BME280;67943;54.412;9.502;2023-09-12T17:14:45;101118.81;;;22.90;68.20
78623;BME280;67943;54.412;9.502;2023-09-12T17:19:47;101116.78;;;22.81;68.90
78623;BME280;67943;54.412;9.502;2023-09-12T17:24:50;101109.06;;;22.62;69.77
78623;BME280;67943;54.412;9.502;2023-09-12T17:29:51;101113.75;;;22.46;70.75
78623;BME280;67943;54.412;9.502;2023-09-12T17:34:53;101114.13;;;22.40;71.07
78623;BME280;67943;54.412;9.502;2023-09-12T17:39:57;101119.50;;;22.40;71.47
78623;BME280;67943;54.412;9.502;2023-09-12T17:44:59;101132.06;;;22.25;72.52
78623;BME280;67943;54.412;9.502;2023-09-12T17:50:00;101137.97;;;22.03;73.60
78623;BME280;67943;54.412;9.502;2023-09-12T17:55:05;101134.53;;;22.01;73.67
78623;BME280;67943;54.412;9.502;2023-09-12T18:00:09;101151.63;;;21.99;74.03
78623;BME280;67943;54.412;9.502;2023-09-12T18:05:10;101164.91;;;22.00;73.78
78623;BME280;67943;54.412;9.502;2023-09-12T18:10:13;101170.47;;;21.97;73.86
78623;BME280;67943;54.412;9.502;2023-09-12T18:15:15;101171.53;;;21.95;74.05
78623;BME280;67943;54.412;9.502;2023-09-12T18:20:16;101165.91;;;21.85;74.82
78623;BME280;67943;54.412;9.502;2023-09-12T18:25:19;101186.06;;;21.76;75.18
78623;BME280;67943;54.412;9.502;2023-09-12T18:30:21;101178.50;;;21.69;75.92
78623;BME280;67943;54.412;9.502;2023-09-12T18:35:22;101183.69;;;21.58;76.38
78623;BME280;67943;54.412;9.502;2023-09-12T18:40:25;101180.59;;;21.49;76.67
78623;BME280;67943;54.412;9.502;2023-09-12T18:45:28;101174.19;;;21.52;76.99
78623;BME280;67943;54.412;9.502;2023-09-12T18:50:30;101199.84;;;21.56;76.59
78623;BME280;67943;54.412;9.502;2023-09-12T18:55:32;101184.06;;;21.51;76.86
78623;BME280;67943;54.412;9.502;2023-09-12T19:00:34;101205.75;;;21.47;77.01
78623;BME280;67943;54.412;9.502;2023-09-12T19:05:36;101207.06;;;21.40;77.59
78623;BME280;67943;54.412;9.502;2023-09-12T19:10:38;101213.66;;;21.34;78.07
78623;BME280;67943;54.412;9.502;2023-09-12T19:15:40;101222.84;;;21.30;78.44
78623;BME280;67943;54.412;9.502;2023-09-12T19:20:44;101219.38;;;21.28;78.83
78623;BME280;67943;54.412;9.502;2023-09-12T19:25:46;101218.25;;;21.32;79.48
78623;BME280;67943;54.412;9.502;2023-09-12T19:30:49;101209.28;;;21.33;79.24
78623;BME280;67943;54.412;9.502;2023-09-12T19:35:50;101219.22;;;21.31;79.21
78623;BME280;67943;54.412;9.502;2023-09-12T19:40:57;101224.28;;;21.36;78.95
78623;BME280;67943;54.412;9.502;2023-09-12T19:46:01;101226.81;;;21.23;78.91
78623;BME280;67943;54.412;9.502;2023-09-12T19:51:02;101226.38;;;21.15;79.39
78623;BME280;67943;54.412;9.502;2023-09-12T19:56:06;101226.53;;;21.12;77.27
78623;BME280;67943;54.412;9.502;2023-09-12T20:01:08;101221.75;;;21.03;75.57
78623;BME280;67943;54.412;9.502;2023-09-12T20:06:09;101235.66;;;20.94;74.22
78623;BME280;67943;54.412;9.502;2023-09-12T20:11:12;101226.16;;;20.88;73.76
78623;BME280;67943;54.412;9.502;2023-09-12T20:16:14;101219.97;;;20.72;74.24
78623;BME280;67943;54.412;9.502;2023-09-12T20:21:16;101210.31;;;20.69;74.08
78623;BME280;67943;54.412;9.502;2023-09-12T20:26:19;101218.94;;;20.59;73.79
78623;BME280;67943;54.412;9.502;2023-09-12T20:31:21;101220.22;;;20.51;73.98
78623;BME280;67943;54.412;9.502;2023-09-12T20:36:23;101232.78;;;20.34;74.25
78623;BME280;67943;54.412;9.502;2023-09-12T20:41:27;101227.00;;;20.26;74.29
78623;BME280;67943;54.412;9.502;2023-09-12T20:46:29;101231.31;;;20.12;74.32
78623;BME280;67943;54.412;9.502;2023-09-12T20:51:30;101226.91;;;20.11;74.38
78623;BME280;67943;54.412;9.502;2023-09-12T20:56:33;101233.69;;;20.01;74.69
78623;BME280;67943;54.412;9.502;2023-09-12T21:01:35;101218.50;;;20.02;74.69
78623;BME280;67943;54.412;9.502;2023-09-12T21:06:36;101231.34;;;19.95;74.88
78623;BME280;67943;54.412;9.502;2023-09-12T21:11:39;101216.78;;;19.85;75.54
78623;BME280;67943;54.412;9.502;2023-09-12T21:16:41;101228.41;;;19.84;75.24
78623;BME280;67943;54.412;9.502;2023-09-12T21:21:42;101219.84;;;19.77;75.54
78623;BME280;67943;54.412;9.502;2023-09-12T21:26:45;101212.38;;;19.67;75.89
78623;BME280;67943;54.412;9.502;2023-09-12T21:31:46;101223.22;;;19.64;75.93
78623;BME280;67943;54.412;9.502;2023-09-12T21:36:48;101216.50;;;19.57;76.34
78623;BME280;67943;54.412;9.502;2023-09-12T21:41:51;101216.59;;;19.55;75.83
78623;BME280;67943;54.412;9.502;2023-09-12T21:46:55;101211.59;;;19.47;76.47
78623;BME280;67943;54.412;9.502;2023-09-12T21:51:57;101199.19;;;19.46;75.75
78623;BME280;67943;54.412;9.502;2023-09-12T21:57:00;101215.44;;;19.42;75.48
78623;BME280;67943;54.412;9.502;2023-09-12T22:02:02;101222.38;;;19.29;75.44
78623;BME280;67943;54.412;9.502;2023-09-12T22:07:04;101226.84;;;19.28;75.46
78623;BME280;67943;54.412;9.502;2023-09-12T22:12:07;101228.16;;;19.19;75.45
78623;BME280;67943;54.412;9.502;2023-09-12T22:17:09;101232.00;;;19.14;75.43
78623;BME280;67943;54.412;9.502;2023-09-12T22:22:11;101241.88;;;19.12;75.26
78623;BME280;67943;54.412;9.502;2023-09-12T22:27:14;101248.31;;;19.08;75.26
78623;BME280;67943;54.412;9.502;2023-09-12T22:32:15;101256.47;;;19.05;74.85
78623;BME280;67943;54.412;9.502;2023-09-12T22:37:17;101269.03;;;19.03;74.53
78623;BME280;67943;54.412;9.502;2023-09-12T22:42:19;101253.88;;;19.03;74.15
78623;BME280;67943;54.412;9.502;2023-09-12T22:47:22;101240.63;;;19.02;73.99
78623;BME280;67943;54.412;9.502;2023-09-12T22:52:24;101243.44;;;18.99;74.17
78623;BME280;67943;54.412;9.502;2023-09-12T22:57:27;101244.53;;;18.95;74.06
78623;BME280;67943;54.412;9.502;2023-09-12T23:02:29;101240.06;;;18.95;73.47
78623;BME280;67943;54.412;9.502;2023-09-12T23:07:30;101243.66;;;18.94;72.61
78623;BME280;67943;54.412;9.502;2023-09-12T23:12:33;101229.69;;;18.89;72.20
78623;BME280;67943;54.412;9.502;2023-09-12T23:17:35;101228.47;;;18.77;71.91
78623;BME280;67943;54.412;9.502;2023-09-12T23:22:36;101216.88;;;18.78;71.82
78623;BME280;67943;54.412;9.502;2023-09-12T23:27:41;101220.66;;;18.74;71.63
78623;BME280;67943;54.412;9.502;2023-09-12T23:32:43;101225.63;;;18.63;72.05
78623;BME280;67943;54.412;9.502;2023-09-12T23:37:45;101228.16;;;18.66;72.02
78623;BME280;67943;54.412;9.502;2023-09-12T23:42:48;101227.22;;;18.67;71.84
78623;BME280;67943;54.412;9.502;2023-09-12T23:47:50;101215.69;;;18.67;71.74
78623;BME280;67943;54.412;9.502;2023-09-12T23:52:51;101223.22;;;18.57;71.91
78623;BME280;67943;54.412;9.502;2023-09-12T23:57:54;101217.09;;;18.55;72.63
